sensor_id;sensor_type;location;lat;lon;timestamp;P1;durP1;ratioP1;P2;durP2;ratioP2
70558;SDS011;58108;48.094;11.838;2024-03-07T00:00:34;5.47;;;1.53;;
70558;SDS011;58108;48.094;11.838;2024-03-07T00:03:00;9.70;;;3.30;;
70558;SDS011;58108;48.094;11.838;2024-03-07T00:05:26;9.93;;;3.47;;
70558;SDS011;58108;48.094;11.838;2024-03-07T00:07:52;8.70;;;2.80;;
70558;SDS011;58108;48.094;11.838;2024-03-07T00:10:18;16.13;;;4.72;;
70558;SDS011;58108;48.094;11.838;2024-03-07T00:12:44;13.57;;;4.30;;
70558;SDS011;58108;48.094;11.838;2024-03-07T00:15:10;12.13;;;3.13;;
70558;SDS011;58108;48.094;11.838;2024-03-07T00:17:38;10.35;;;3.03;;
70558;SDS011;58108;48.094;11.838;2024-03-07T00:20:04;9.00;;;2.70;;
70558;SDS011;58108;48.094;11.838;2024-03-07T00:22:34;11.50;;;3.80;;
70558;SDS011;58108;48.094;11.838;2024-03-07T00:25:02;13.47;;;3.93;;
70558;SDS011;58108;48.094;11.838;2024-03-07T00:27:31;12.95;;;4.03;;
70558;SDS011;58108;48.094;11.838;2024-03-07T00:29:58;11.35;;;3.60;;
70558;SDS011;58108;48.094;11.838;2024-03-07T00:32:24;7.38;;;3.03;;
70558;SDS011;58108;48.094;11.838;2024-03-07T00:34:50;8.97;;;3.37;;
70558;SDS011;58108;48.094;11.838;2024-03-07T00:37:15;13.50;;;4.20;;
70558;SDS011;58108;48.094;11.838;2024-03-07T00:39:42;11.40;;;4.22;;
70558;SDS011;58108;48.094;11.838;2024-03-07T00:42:08;11.18;;;3.90;;
70558;SDS011;58108;48.094;11.838;2024-03-07T00:44:33;6.55;;;2.20;;
70558;SDS011;58108;48.094;11.838;2024-03-07T00:47:02;6.85;;;2.85;;
70558;SDS011;58108;48.094;11.838;2024-03-07T00:49:28;9.65;;;3.20;;
70558;SDS011;58108;48.094;11.838;2024-03-07T00:51:54;14.52;;;3.70;;
70558;SDS011;58108;48.094;11.838;2024-03-07T00:54:19;8.18;;;2.83;;
70558;SDS011;58108;48.094;11.838;2024-03-07T00:56:45;8.82;;;2.97;;
70558;SDS011;58108;48.094;11.838;2024-03-07T00:59:14;15.90;;;5.13;;
70558;SDS011;58108;48.094;11.838;2024-03-07T01:01:41;10.38;;;3.38;;
70558;SDS011;58108;48.094;11.838;2024-03-07T01:04:07;12.88;;;4.05;;
70558;SDS011;58108;48.094;11.838;2024-03-07T01:06:33;10.27;;;3.05;;
70558;SDS011;58108;48.094;11.838;2024-03-07T01:08:59;14.97;;;4.73;;
70558;SDS011;58108;48.094;11.838;2024-03-07T01:11:24;15.32;;;4.22;;
70558;SDS011;58108;48.094;11.838;2024-03-07T01:13:50;11.93;;;3.83;;
70558;SDS011;58108;48.094;11.838;2024-03-07T01:16:15;7.57;;;1.85;;
70558;SDS011;58108;48.094;11.838;2024-03-07T01:18:41;12.13;;;3.27;;
70558;SDS011;58108;48.094;11.838;2024-03-07T01:21:07;12.77;;;3.93;;
70558;SDS011;58108;48.094;11.838;2024-03-07T01:23:33;7.05;;;1.95;;
70558;SDS011;58108;48.094;11.838;2024-03-07T01:25:59;16.25;;;4.75;;
70558;SDS011;58108;48.094;11.838;2024-03-07T01:28:25;15.68;;;4.10;;
70558;SDS011;58108;48.094;11.838;2024-03-07T01:30:55;9.00;;;3.17;;
70558;SDS011;58108;48.094;11.838;2024-03-07T01:33:22;11.70;;;4.60;;
70558;SDS011;58108;48.094;11.838;2024-03-07T01:35:47;12.13;;;3.90;;
70558;SDS011;58108;48.094;11.838;2024-03-07T01:38:13;10.50;;;2.87;;
70558;SDS011;58108;48.094;11.838;2024-03-07T01:40:40;13.13;;;4.00;;
70558;SDS011;58108;48.094;11.838;2024-03-07T01:43:06;9.13;;;2.90;;
70558;SDS011;58108;48.094;11.838;2024-03-07T01:45:32;13.02;;;3.50;;
70558;SDS011;58108;48.094;11.838;2024-03-07T01:47:58;8.37;;;2.67;;
70558;SDS011;58108;48.094;11.838;2024-03-07T01:50:24;7.80;;;2.83;;
70558;SDS011;58108;48.094;11.838;2024-03-07T01:52:50;14.80;;;4.75;;
70558;SDS011;58108;48.094;11.838;2024-03-07T01:55:17;14.80;;;3.97;;
70558;SDS011;58108;48.094;11.838;2024-03-07T01:57:43;8.90;;;3.03;;
70558;SDS011;58108;48.094;11.838;2024-03-07T02:00:09;15.30;;;4.95;;
70558;SDS011;58108;48.094;11.838;2024-03-07T02:02:35;16.23;;;4.18;;
70558;SDS011;58108;48.094;11.838;2024-03-07T02:05:01;16.63;;;5.40;;
70558;SDS011;58108;48.094;11.838;2024-03-07T02:07:27;16.20;;;4.97;;
70558;SDS011;58108;48.094;11.838;2024-03-07T02:10:00;20.15;;;5.35;;
70558;SDS011;58108;48.094;11.838;2024-03-07T02:12:26;16.98;;;4.82;;
70558;SDS011;58108;48.094;11.838;2024-03-07T02:14:52;14.93;;;4.93;;
70558;SDS011;58108;48.094;11.838;2024-03-07T02:17:17;23.20;;;4.83;;
70558;SDS011;58108;48.094;11.838;2024-03-07T02:19:43;7.00;;;2.38;;
70558;SDS011;58108;48.094;11.838;2024-03-07T02:22:09;18.20;;;5.20;;
70558;SDS011;58108;48.094;11.838;2024-03-07T02:24:34;11.43;;;3.47;;
70558;SDS011;58108;48.094;11.838;2024-03-07T02:27:00;12.10;;;4.35;;
70558;SDS011;58108;48.094;11.838;2024-03-07T02:29:25;13.07;;;3.03;;
70558;SDS011;58108;48.094;11.838;2024-03-07T02:31:51;10.95;;;4.35;;
70558;SDS011;58108;48.094;11.838;2024-03-07T02:34:17;18.43;;;5.63;;
70558;SDS011;58108;48.094;11.838;2024-03-07T02:36:44;20.25;;;5.90;;
70558;SDS011;58108;48.094;11.838;2024-03-07T02:39:09;15.90;;;4.10;;
70558;SDS011;58108;48.094;11.838;2024-03-07T02:41:35;23.23;;;5.70;;
70558;SDS011;58108;48.094;11.838;2024-03-07T02:44:01;25.48;;;5.25;;
70558;SDS011;58108;48.094;11.838;2024-03-07T02:46:29;23.20;;;5.22;;
70558;SDS011;58108;48.094;11.838;2024-03-07T02:48:55;15.90;;;4.43;;
70558;SDS011;58108;48.094;11.838;2024-03-07T02:51:20;16.25;;;5.03;;
70558;SDS011;58108;48.094;11.838;2024-03-07T02:53:46;22.37;;;6.50;;
70558;SDS011;58108;48.094;11.838;2024-03-07T02:56:11;9.87;;;4.17;;
70558;SDS011;58108;48.094;11.838;2024-03-07T02:58:37;19.95;;;5.25;;
70558;SDS011;58108;48.094;11.838;2024-03-07T03:01:02;19.77;;;4.87;;
70558;SDS011;58108;48.094;11.838;2024-03-07T03:03:29;19.02;;;5.95;;
70558;SDS011;58108;48.094;11.838;2024-03-07T03:05:58;20.08;;;5.68;;
70558;SDS011;58108;48.094;11.838;2024-03-07T03:08:25;16.93;;;5.83;;
70558;SDS011;58108;48.094;11.838;2024-03-07T03:10:51;20.83;;;5.78;;
70558;SDS011;58108;48.094;11.838;2024-03-07T03:13:17;14.45;;;4.15;;
70558;SDS011;58108;48.094;11.838;2024-03-07T03:15:42;17.07;;;4.83;;
70558;SDS011;58108;48.094;11.838;2024-03-07T03:18:08;23.55;;;5.00;;
70558;SDS011;58108;48.094;11.838;2024-03-07T03:20:35;12.77;;;2.80;;
70558;SDS011;58108;48.094;11.838;2024-03-07T03:23:06;18.90;;;5.35;;
70558;SDS011;58108;48.094;11.838;2024-03-07T03:25:36;15.50;;;4.77;;
70558;SDS011;58108;48.094;11.838;2024-03-07T03:28:06;18.70;;;5.00;;
70558;SDS011;58108;48.094;11.838;2024-03-07T03:30:38;13.48;;;4.35;;
70558;SDS011;58108;48.094;11.838;2024-03-07T03:33:04;20.83;;;7.45;;
70558;SDS011;58108;48.094;11.838;2024-03-07T03:35:31;18.35;;;5.13;;
70558;SDS011;58108;48.094;11.838;2024-03-07T03:37:57;18.80;;;4.30;;
70558;SDS011;58108;48.094;11.838;2024-03-07T03:40:22;18.95;;;5.28;;
70558;SDS011;58108;48.094;11.838;2024-03-07T03:42:48;18.77;;;4.77;;
70558;SDS011;58108;48.094;11.838;2024-03-07T03:45:14;17.95;;;4.88;;
70558;SDS011;58108;48.094;11.838;2024-03-07T03:47:41;21.40;;;5.43;;
70558;SDS011;58108;48.094;11.838;2024-03-07T03:50:11;21.45;;;6.40;;
70558;SDS011;58108;48.094;11.838;2024-03-07T03:52:39;18.23;;;6.13;;
70558;SDS011;58108;48.094;11.838;2024-03-07T03:55:06;21.35;;;5.45;;
70558;SDS011;58108;48.094;11.838;2024-03-07T03:57:32;20.58;;;5.60;;
70558;SDS011;58108;48.094;11.838;2024-03-07T03:59:59;21.17;;;4.90;;
70558;SDS011;58108;48.094;11.838;2024-03-07T04:02:25;23.95;;;5.97;;
70558;SDS011;58108;48.094;11.838;2024-03-07T04:04:51;20.02;;;5.53;;
70558;SDS011;58108;48.094;11.838;2024-03-07T04:07:18;23.20;;;5.88;;
70558;SDS011;58108;48.094;11.838;2024-03-07T04:09:44;18.50;;;4.82;;
70558;SDS011;58108;48.094;11.838;2024-03-07T04:12:10;24.30;;;5.67;;
70558;SDS011;58108;48.094;11.838;2024-03-07T04:14:37;26.48;;;6.25;;
70558;SDS011;58108;48.094;11.838;2024-03-07T04:17:06;24.17;;;6.28;;
70558;SDS011;58108;48.094;11.838;2024-03-07T04:19:36;25.65;;;6.22;;
70558;SDS011;58108;48.094;11.838;2024-03-07T04:22:03;20.25;;;4.85;;
70558;SDS011;58108;48.094;11.838;2024-03-07T04:24:32;28.23;;;6.57;;
70558;SDS011;58108;48.094;11.838;2024-03-07T04:27:04;24.30;;;6.45;;
70558;SDS011;58108;48.094;11.838;2024-03-07T04:29:30;27.05;;;6.88;;
70558;SDS011;58108;48.094;11.838;2024-03-07T04:31:57;25.73;;;6.73;;
70558;SDS011;58108;48.094;11.838;2024-03-07T04:34:23;32.20;;;8.25;;
70558;SDS011;58108;48.094;11.838;2024-03-07T04:36:48;28.45;;;7.60;;
70558;SDS011;58108;48.094;11.838;2024-03-07T04:39:14;32.50;;;8.03;;
70558;SDS011;58108;48.094;11.838;2024-03-07T04:41:50;20.60;;;5.90;;
70558;SDS011;58108;48.094;11.838;2024-03-07T04:44:19;29.37;;;7.67;;
70558;SDS011;58108;48.094;11.838;2024-03-07T04:46:49;30.67;;;8.73;;
70558;SDS011;58108;48.094;11.838;2024-03-07T04:49:16;31.45;;;8.25;;
70558;SDS011;58108;48.094;11.838;2024-03-07T04:51:42;32.95;;;9.52;;
70558;SDS011;58108;48.094;11.838;2024-03-07T04:54:07;31.92;;;8.98;;
70558;SDS011;58108;48.094;11.838;2024-03-07T04:56:33;40.83;;;11.20;;
70558;SDS011;58108;48.094;11.838;2024-03-07T04:58:58;36.33;;;10.57;;
70558;SDS011;58108;48.094;11.838;2024-03-07T05:01:24;42.43;;;11.60;;
70558;SDS011;58108;48.094;11.838;2024-03-07T05:03:50;33.95;;;10.13;;
70558;SDS011;58108;48.094;11.838;2024-03-07T05:06:17;44.17;;;12.90;;
70558;SDS011;58108;48.094;11.838;2024-03-07T05:08:43;51.72;;;14.07;;
70558;SDS011;58108;48.094;11.838;2024-03-07T05:11:09;45.95;;;15.02;;
70558;SDS011;58108;48.094;11.838;2024-03-07T05:13:35;38.40;;;11.50;;
70558;SDS011;58108;48.094;11.838;2024-03-07T05:16:02;49.37;;;13.27;;
70558;SDS011;58108;48.094;11.838;2024-03-07T05:18:28;50.35;;;15.82;;
70558;SDS011;58108;48.094;11.838;2024-03-07T05:20:54;50.58;;;15.27;;
70558;SDS011;58108;48.094;11.838;2024-03-07T05:23:20;38.57;;;11.07;;
70558;SDS011;58108;48.094;11.838;2024-03-07T05:25:46;46.55;;;13.20;;
70558;SDS011;58108;48.094;11.838;2024-03-07T05:28:11;49.10;;;13.63;;
70558;SDS011;58108;48.094;11.838;2024-03-07T05:30:37;46.63;;;14.63;;
70558;SDS011;58108;48.094;11.838;2024-03-07T05:33:03;50.20;;;14.47;;
70558;SDS011;58108;48.094;11.838;2024-03-07T05:35:29;46.80;;;13.65;;
70558;SDS011;58108;48.094;11.838;2024-03-07T05:37:55;41.90;;;13.03;;
70558;SDS011;58108;48.094;11.838;2024-03-07T05:40:22;44.58;;;14.13;;
70558;SDS011;58108;48.094;11.838;2024-03-07T05:42:48;51.53;;;15.63;;
70558;SDS011;58108;48.094;11.838;2024-03-07T05:45:14;52.25;;;14.85;;
70558;SDS011;58108;48.094;11.838;2024-03-07T05:47:40;46.27;;;14.77;;
70558;SDS011;58108;48.094;11.838;2024-03-07T05:50:07;51.10;;;16.00;;
70558;SDS011;58108;48.094;11.838;2024-03-07T05:52:33;56.42;;;16.10;;
70558;SDS011;58108;48.094;11.838;2024-03-07T05:54:58;54.13;;;15.97;;
70558;SDS011;58108;48.094;11.838;2024-03-07T05:57:24;57.70;;;17.33;;
70558;SDS011;58108;48.094;11.838;2024-03-07T05:59:50;59.77;;;16.93;;
70558;SDS011;58108;48.094;11.838;2024-03-07T06:02:16;51.92;;;16.00;;
70558;SDS011;58108;48.094;11.838;2024-03-07T06:04:42;54.03;;;15.90;;
70558;SDS011;58108;48.094;11.838;2024-03-07T06:07:08;54.58;;;15.40;;
70558;SDS011;58108;48.094;11.838;2024-03-07T06:09:36;50.80;;;16.38;;
70558;SDS011;58108;48.094;11.838;2024-03-07T06:12:02;54.93;;;15.40;;
70558;SDS011;58108;48.094;11.838;2024-03-07T06:14:29;53.80;;;16.40;;
70558;SDS011;58108;48.094;11.838;2024-03-07T06:16:55;54.28;;;14.88;;
70558;SDS011;58108;48.094;11.838;2024-03-07T06:19:23;49.22;;;15.27;;
70558;SDS011;58108;48.094;11.838;2024-03-07T06:21:49;57.33;;;16.67;;
70558;SDS011;58108;48.094;11.838;2024-03-07T06:24:15;55.35;;;16.58;;
70558;SDS011;58108;48.094;11.838;2024-03-07T06:26:42;53.22;;;15.55;;
70558;SDS011;58108;48.094;11.838;2024-03-07T06:29:11;60.10;;;17.17;;
70558;SDS011;58108;48.094;11.838;2024-03-07T06:31:38;58.33;;;16.53;;
70558;SDS011;58108;48.094;11.838;2024-03-07T06:34:05;53.90;;;15.65;;
70558;SDS011;58108;48.094;11.838;2024-03-07T06:36:30;52.58;;;16.13;;
70558;SDS011;58108;48.094;11.838;2024-03-07T06:38:56;57.13;;;15.37;;
70558;SDS011;58108;48.094;11.838;2024-03-07T06:41:22;54.53;;;16.55;;
70558;SDS011;58108;48.094;11.838;2024-03-07T06:43:47;51.88;;;15.73;;
70558;SDS011;58108;48.094;11.838;2024-03-07T06:46:15;54.30;;;15.05;;
70558;SDS011;58108;48.094;11.838;2024-03-07T06:48:41;53.53;;;17.13;;
70558;SDS011;58108;48.094;11.838;2024-03-07T06:51:08;52.10;;;17.03;;
70558;SDS011;58108;48.094;11.838;2024-03-07T06:53:33;53.08;;;15.63;;
70558;SDS011;58108;48.094;11.838;2024-03-07T06:56:00;60.05;;;17.73;;
70558;SDS011;58108;48.094;11.838;2024-03-07T06:58:26;51.47;;;15.70;;
70558;SDS011;58108;48.094;11.838;2024-03-07T07:00:52;54.67;;;16.60;;
70558;SDS011;58108;48.094;11.838;2024-03-07T07:03:23;56.42;;;16.45;;
70558;SDS011;58108;48.094;11.838;2024-03-07T07:05:49;49.80;;;15.15;;
70558;SDS011;58108;48.094;11.838;2024-03-07T07:08:15;54.40;;;15.85;;
70558;SDS011;58108;48.094;11.838;2024-03-07T07:10:41;49.90;;;14.03;;
70558;SDS011;58108;48.094;11.838;2024-03-07T07:13:08;55.25;;;15.50;;
70558;SDS011;58108;48.094;11.838;2024-03-07T07:15:34;55.67;;;16.48;;
70558;SDS011;58108;48.094;11.838;2024-03-07T07:17:59;52.00;;;15.23;;
70558;SDS011;58108;48.094;11.838;2024-03-07T07:20:27;48.28;;;15.38;;
70558;SDS011;58108;48.094;11.838;2024-03-07T07:22:53;54.00;;;15.07;;
70558;SDS011;58108;48.094;11.838;2024-03-07T07:25:19;47.15;;;14.85;;
70558;SDS011;58108;48.094;11.838;2024-03-07T07:27:46;56.47;;;16.08;;
70558;SDS011;58108;48.094;11.838;2024-03-07T07:30:16;50.95;;;15.07;;
70558;SDS011;58108;48.094;11.838;2024-03-07T07:32:48;53.08;;;16.40;;
70558;SDS011;58108;48.094;11.838;2024-03-07T07:35:15;50.70;;;15.83;;
70558;SDS011;58108;48.094;11.838;2024-03-07T07:37:41;51.22;;;15.73;;
70558;SDS011;58108;48.094;11.838;2024-03-07T07:40:08;48.90;;;15.25;;
70558;SDS011;58108;48.094;11.838;2024-03-07T07:42:37;49.00;;;14.50;;
70558;SDS011;58108;48.094;11.838;2024-03-07T07:45:14;54.35;;;16.75;;
70558;SDS011;58108;48.094;11.838;2024-03-07T07:47:42;50.38;;;16.20;;
70558;SDS011;58108;48.094;11.838;2024-03-07T07:50:09;47.22;;;14.05;;
70558;SDS011;58108;48.094;11.838;2024-03-07T07:55:14;53.27;;;14.87;;
70558;SDS011;58108;48.094;11.838;2024-03-07T07:57:41;42.95;;;12.77;;
70558;SDS011;58108;48.094;11.838;2024-03-07T08:00:14;47.05;;;14.82;;
70558;SDS011;58108;48.094;11.838;2024-03-07T08:02:50;48.88;;;15.05;;
70558;SDS011;58108;48.094;11.838;2024-03-07T08:05:17;46.42;;;14.70;;
70558;SDS011;58108;48.094;11.838;2024-03-07T08:07:45;44.13;;;14.07;;
70558;SDS011;58108;48.094;11.838;2024-03-07T08:10:13;43.28;;;14.43;;
70558;SDS011;58108;48.094;11.838;2024-03-07T08:12:40;50.35;;;14.63;;
70558;SDS011;58108;48.094;11.838;2024-03-07T08:15:12;51.35;;;14.90;;
70558;SDS011;58108;48.094;11.838;2024-03-07T08:17:41;48.00;;;16.15;;
70558;SDS011;58108;48.094;11.838;2024-03-07T08:20:15;49.70;;;16.33;;
70558;SDS011;58108;48.094;11.838;2024-03-07T08:22:43;51.72;;;15.55;;
70558;SDS011;58108;48.094;11.838;2024-03-07T08:25:10;50.00;;;15.70;;
70558;SDS011;58108;48.094;11.838;2024-03-07T08:27:47;49.45;;;15.32;;
70558;SDS011;58108;48.094;11.838;2024-03-07T08:30:14;50.40;;;15.43;;
70558;SDS011;58108;48.094;11.838;2024-03-07T08:32:40;45.93;;;14.40;;
70558;SDS011;58108;48.094;11.838;2024-03-07T08:35:09;51.47;;;14.40;;
70558;SDS011;58108;48.094;11.838;2024-03-07T08:37:35;54.60;;;17.65;;
70558;SDS011;58108;48.094;11.838;2024-03-07T08:40:02;55.05;;;16.00;;
70558;SDS011;58108;48.094;11.838;2024-03-07T08:42:30;54.00;;;15.32;;
70558;SDS011;58108;48.094;11.838;2024-03-07T08:44:58;39.23;;;13.07;;
70558;SDS011;58108;48.094;11.838;2024-03-07T08:47:24;45.35;;;15.20;;
70558;SDS011;58108;48.094;11.838;2024-03-07T08:49:50;52.08;;;14.82;;
70558;SDS011;58108;48.094;11.838;2024-03-07T08:52:16;51.53;;;16.33;;
70558;SDS011;58108;48.094;11.838;2024-03-07T08:54:42;51.72;;;15.70;;
70558;SDS011;58108;48.094;11.838;2024-03-07T08:57:08;52.83;;;15.00;;
70558;SDS011;58108;48.094;11.838;2024-03-07T08:59:34;49.95;;;16.52;;
70558;SDS011;58108;48.094;11.838;2024-03-07T09:02:00;51.30;;;14.87;;
70558;SDS011;58108;48.094;11.838;2024-03-07T09:04:27;44.15;;;13.68;;
70558;SDS011;58108;48.094;11.838;2024-03-07T09:06:54;42.40;;;13.52;;
70558;SDS011;58108;48.094;11.838;2024-03-07T09:09:20;48.40;;;15.47;;
70558;SDS011;58108;48.094;11.838;2024-03-07T09:11:45;45.55;;;15.02;;
70558;SDS011;58108;48.094;11.838;2024-03-07T09:14:11;46.40;;;13.77;;
70558;SDS011;58108;48.094;11.838;2024-03-07T09:16:37;45.83;;;14.80;;
70558;SDS011;58108;48.094;11.838;2024-03-07T09:19:03;43.93;;;13.10;;
70558;SDS011;58108;48.094;11.838;2024-03-07T09:21:29;48.97;;;15.98;;
70558;SDS011;58108;48.094;11.838;2024-03-07T09:23:54;45.57;;;14.27;;
70558;SDS011;58108;48.094;11.838;2024-03-07T09:26:20;48.15;;;13.98;;
70558;SDS011;58108;48.094;11.838;2024-03-07T09:28:46;40.20;;;13.00;;
70558;SDS011;58108;48.094;11.838;2024-03-07T09:31:14;49.57;;;14.23;;
70558;SDS011;58108;48.094;11.838;2024-03-07T09:33:40;44.38;;;14.73;;
70558;SDS011;58108;48.094;11.838;2024-03-07T09:36:05;45.53;;;15.02;;
70558;SDS011;58108;48.094;11.838;2024-03-07T09:38:32;48.80;;;15.93;;
70558;SDS011;58108;48.094;11.838;2024-03-07T09:40:58;41.88;;;13.68;;
70558;SDS011;58108;48.094;11.838;2024-03-07T09:43:25;46.83;;;14.65;;
70558;SDS011;58108;48.094;11.838;2024-03-07T09:45:53;46.70;;;14.27;;
70558;SDS011;58108;48.094;11.838;2024-03-07T09:48:19;41.92;;;12.82;;
70558;SDS011;58108;48.094;11.838;2024-03-07T09:50:46;42.63;;;14.35;;
70558;SDS011;58108;48.094;11.838;2024-03-07T09:53:17;45.47;;;13.07;;
70558;SDS011;58108;48.094;11.838;2024-03-07T09:55:43;43.17;;;13.50;;
70558;SDS011;58108;48.094;11.838;2024-03-07T09:58:10;38.63;;;12.52;;
70558;SDS011;58108;48.094;11.838;2024-03-07T10:00:38;41.13;;;12.43;;
70558;SDS011;58108;48.094;11.838;2024-03-07T10:03:06;43.33;;;13.32;;
70558;SDS011;58108;48.094;11.838;2024-03-07T10:05:34;42.20;;;13.40;;
70558;SDS011;58108;48.094;11.838;2024-03-07T10:08:00;41.92;;;13.35;;
70558;SDS011;58108;48.094;11.838;2024-03-07T10:10:26;34.88;;;11.85;;
70558;SDS011;58108;48.094;11.838;2024-03-07T10:12:52;43.00;;;12.80;;
70558;SDS011;58108;48.094;11.838;2024-03-07T10:15:19;39.25;;;13.77;;
70558;SDS011;58108;48.094;11.838;2024-03-07T10:17:45;42.13;;;13.32;;
70558;SDS011;58108;48.094;11.838;2024-03-07T10:20:14;42.35;;;13.57;;
70558;SDS011;58108;48.094;11.838;2024-03-07T10:22:45;40.07;;;13.13;;
70558;SDS011;58108;48.094;11.838;2024-03-07T10:25:11;37.03;;;12.05;;
70558;SDS011;58108;48.094;11.838;2024-03-07T10:27:37;36.15;;;12.68;;
70558;SDS011;58108;48.094;11.838;2024-03-07T10:30:03;36.73;;;12.23;;
70558;SDS011;58108;48.094;11.838;2024-03-07T10:32:32;36.92;;;12.38;;
70558;SDS011;58108;48.094;11.838;2024-03-07T10:34:58;42.45;;;12.82;;
70558;SDS011;58108;48.094;11.838;2024-03-07T10:37:24;37.57;;;13.27;;
70558;SDS011;58108;48.094;11.838;2024-03-07T10:39:51;37.10;;;12.25;;
70558;SDS011;58108;48.094;11.838;2024-03-07T10:42:17;36.17;;;12.10;;
70558;SDS011;58108;48.094;11.838;2024-03-07T10:44:44;35.70;;;10.98;;
70558;SDS011;58108;48.094;11.838;2024-03-07T10:47:15;37.83;;;12.02;;
70558;SDS011;58108;48.094;11.838;2024-03-07T10:49:46;38.53;;;12.00;;
70558;SDS011;58108;48.094;11.838;2024-03-07T10:52:25;31.13;;;12.45;;
70558;SDS011;58108;48.094;11.838;2024-03-07T11:01:02;38.13;;;11.30;;
70558;SDS011;58108;48.094;11.838;2024-03-07T11:03:31;32.15;;;10.82;;
70558;SDS011;58108;48.094;11.838;2024-03-07T11:05:59;38.55;;;12.38;;
70558;SDS011;58108;48.094;11.838;2024-03-07T11:08:31;38.17;;;13.03;;
70558;SDS011;58108;48.094;11.838;2024-03-07T11:10:57;38.63;;;11.80;;
70558;SDS011;58108;48.094;11.838;2024-03-07T11:13:22;37.47;;;11.55;;
70558;SDS011;58108;48.094;11.838;2024-03-07T11:15:49;34.57;;;11.17;;
70558;SDS011;58108;48.094;11.838;2024-03-07T11:18:16;33.53;;;10.93;;
70558;SDS011;58108;48.094;11.838;2024-03-07T11:20:42;34.05;;;11.82;;
70558;SDS011;58108;48.094;11.838;2024-03-07T11:26:05;31.65;;;10.30;;
70558;SDS011;58108;48.094;11.838;2024-03-07T11:28:38;34.17;;;10.87;;
70558;SDS011;58108;48.094;11.838;2024-03-07T11:33:40;32.42;;;10.60;;
70558;SDS011;58108;48.094;11.838;2024-03-07T11:36:07;33.67;;;11.50;;
70558;SDS011;58108;48.094;11.838;2024-03-07T11:38:34;33.58;;;11.02;;
70558;SDS011;58108;48.094;11.838;2024-03-07T11:41:00;35.27;;;11.00;;
70558;SDS011;58108;48.094;11.838;2024-03-07T11:43:31;29.40;;;10.15;;
70558;SDS011;58108;48.094;11.838;2024-03-07T11:45:58;32.30;;;11.57;;
70558;SDS011;58108;48.094;11.838;2024-03-07T11:48:24;33.65;;;11.32;;
70558;SDS011;58108;48.094;11.838;2024-03-07T11:50:50;26.25;;;9.52;;
70558;SDS011;58108;48.094;11.838;2024-03-07T11:53:16;31.52;;;10.70;;
70558;SDS011;58108;48.094;11.838;2024-03-07T11:55:43;31.55;;;10.90;;
70558;SDS011;58108;48.094;11.838;2024-03-07T11:58:14;32.85;;;10.95;;
70558;SDS011;58108;48.094;11.838;2024-03-07T12:00:42;31.88;;;10.70;;
70558;SDS011;58108;48.094;11.838;2024-03-07T12:03:16;29.98;;;10.25;;
70558;SDS011;58108;48.094;11.838;2024-03-07T12:05:44;35.97;;;12.38;;
70558;SDS011;58108;48.094;11.838;2024-03-07T12:08:10;38.08;;;11.93;;
70558;SDS011;58108;48.094;11.838;2024-03-07T12:10:40;31.85;;;10.90;;
70558;SDS011;58108;48.094;11.838;2024-03-07T12:13:12;35.08;;;11.20;;
70558;SDS011;58108;48.094;11.838;2024-03-07T12:15:41;30.77;;;10.57;;
70558;SDS011;58108;48.094;11.838;2024-03-07T12:18:07;34.40;;;10.70;;
70558;SDS011;58108;48.094;11.838;2024-03-07T12:20:37;33.50;;;11.43;;
70558;SDS011;58108;48.094;11.838;2024-03-07T12:23:04;34.10;;;11.43;;
70558;SDS011;58108;48.094;11.838;2024-03-07T12:25:36;34.25;;;10.45;;
70558;SDS011;58108;48.094;11.838;2024-03-07T12:28:04;31.08;;;10.80;;
70558;SDS011;58108;48.094;11.838;2024-03-07T12:30:48;32.80;;;10.43;;
70558;SDS011;58108;48.094;11.838;2024-03-07T12:33:16;36.40;;;11.60;;
70558;SDS011;58108;48.094;11.838;2024-03-07T12:35:43;34.13;;;11.32;;
70558;SDS011;58108;48.094;11.838;2024-03-07T12:38:09;29.15;;;10.15;;
70558;SDS011;58108;48.094;11.838;2024-03-07T12:40:36;33.95;;;11.60;;
70558;SDS011;58108;48.094;11.838;2024-03-07T12:43:12;29.95;;;10.48;;
70558;SDS011;58108;48.094;11.838;2024-03-07T12:45:51;31.80;;;11.70;;
70558;SDS011;58108;48.094;11.838;2024-03-07T12:48:18;30.63;;;10.90;;
70558;SDS011;58108;48.094;11.838;2024-03-07T12:50:46;28.92;;;10.30;;
70558;SDS011;58108;48.094;11.838;2024-03-07T12:53:21;30.85;;;10.50;;
70558;SDS011;58108;48.094;11.838;2024-03-07T12:55:48;30.48;;;10.77;;
70558;SDS011;58108;48.094;11.838;2024-03-07T12:58:14;32.03;;;11.27;;
70558;SDS011;58108;48.094;11.838;2024-03-07T13:00:40;35.35;;;11.40;;
70558;SDS011;58108;48.094;11.838;2024-03-07T13:03:07;30.20;;;11.48;;
70558;SDS011;58108;48.094;11.838;2024-03-07T13:05:35;30.63;;;11.10;;
70558;SDS011;58108;48.094;11.838;2024-03-07T13:08:05;29.55;;;9.32;;
70558;SDS011;58108;48.094;11.838;2024-03-07T13:10:39;31.52;;;10.63;;
70558;SDS011;58108;48.094;11.838;2024-03-07T13:13:07;31.20;;;10.95;;
70558;SDS011;58108;48.094;11.838;2024-03-07T13:15:36;32.20;;;10.38;;
70558;SDS011;58108;48.094;11.838;2024-03-07T13:18:05;33.85;;;11.27;;
70558;SDS011;58108;48.094;11.838;2024-03-07T13:20:32;30.60;;;10.52;;
70558;SDS011;58108;48.094;11.838;2024-03-07T13:22:58;30.73;;;10.75;;
70558;SDS011;58108;48.094;11.838;2024-03-07T13:25:27;30.88;;;11.75;;
70558;SDS011;58108;48.094;11.838;2024-03-07T13:27:57;33.15;;;11.25;;
70558;SDS011;58108;48.094;11.838;2024-03-07T13:30:26;30.05;;;11.23;;
70558;SDS011;58108;48.094;11.838;2024-03-07T13:32:53;31.35;;;11.30;;
70558;SDS011;58108;48.094;11.838;2024-03-07T13:35:20;32.47;;;10.50;;
70558;SDS011;58108;48.094;11.838;2024-03-07T13:37:47;29.92;;;11.10;;
70558;SDS011;58108;48.094;11.838;2024-03-07T13:40:13;31.00;;;10.43;;
70558;SDS011;58108;48.094;11.838;2024-03-07T13:42:51;31.02;;;11.35;;
70558;SDS011;58108;48.094;11.838;2024-03-07T13:45:18;29.70;;;10.93;;
70558;SDS011;58108;48.094;11.838;2024-03-07T13:47:49;30.63;;;10.75;;
70558;SDS011;58108;48.094;11.838;2024-03-07T13:50:15;32.20;;;11.32;;
70558;SDS011;58108;48.094;11.838;2024-03-07T13:52:45;30.50;;;12.50;;
70558;SDS011;58108;48.094;11.838;2024-03-07T13:55:31;30.52;;;10.40;;
70558;SDS011;58108;48.094;11.838;2024-03-07T13:58:34;33.90;;;12.10;;
70558;SDS011;58108;48.094;11.838;2024-03-07T14:17:39;33.07;;;12.40;;
70558;SDS011;58108;48.094;11.838;2024-03-07T14:31:46;32.70;;;11.93;;
70558;SDS011;58108;48.094;11.838;2024-03-07T14:36:49;31.17;;;11.57;;
70558;SDS011;58108;48.094;11.838;2024-03-07T14:39:18;34.40;;;11.90;;
70558;SDS011;58108;48.094;11.838;2024-03-07T14:42:06;34.70;;;11.02;;
70558;SDS011;58108;48.094;11.838;2024-03-07T14:44:38;35.07;;;11.70;;
70558;SDS011;58108;48.094;11.838;2024-03-07T14:47:05;32.83;;;11.73;;
70558;SDS011;58108;48.094;11.838;2024-03-07T14:49:36;31.00;;;11.68;;
70558;SDS011;58108;48.094;11.838;2024-03-07T14:52:03;29.33;;;11.32;;
70558;SDS011;58108;48.094;11.838;2024-03-07T14:54:36;30.17;;;9.75;;
70558;SDS011;58108;48.094;11.838;2024-03-07T14:57:04;28.15;;;9.73;;
70558;SDS011;58108;48.094;11.838;2024-03-07T14:59:33;25.02;;;10.00;;